createdAt,value
2023-08-29T00:01:53.961Z,86285.88
2023-08-29T00:04:21.869Z,86293.84
2023-08-29T00:06:49.644Z,86295.13
2023-08-29T00:09:17.627Z,86298.22
2023-08-29T00:11:45.468Z,86296.00
2023-08-29T00:14:13.321Z,86287.38
2023-08-29T00:16:42.074Z,86282.50
2023-08-29T00:19:09.561Z,86287.38
2023-08-29T00:21:37.183Z,86282.19
2023-08-29T00:24:05.211Z,86290.47
2023-08-29T00:26:32.655Z,86282.63
2023-08-29T00:29:00.564Z,86279.97
2023-08-29T00:31:28.292Z,86292.91
2023-08-29T00:33:56.611Z,86292.59
2023-08-29T00:36:24.792Z,86278.25
2023-08-29T00:38:52.685Z,86280.50
2023-08-29T00:41:20.994Z,86284.75
2023-08-29T00:43:48.930Z,86278.69
2023-08-29T00:46:17.241Z,86286.03
2023-08-29T00:48:45.285Z,86292.06
2023-08-29T00:51:13.222Z,86289.81
2023-08-29T00:53:41.056Z,86292.16
2023-08-29T00:56:08.887Z,86299.38
2023-08-29T00:58:36.826Z,86293.34
2023-08-29T01:01:05.116Z,86295.69
2023-08-29T01:03:33.618Z,86296.41
2023-08-29T01:06:01.407Z,86296.22
2023-08-29T01:08:29.312Z,86297.69
2023-08-29T01:11:17.846Z,86294.72
2023-08-29T01:14:04.355Z,86296.00
2023-08-29T01:16:53.727Z,86292.28
2023-08-29T01:19:23.704Z,86282.84
2023-08-29T01:22:39.788Z,86281.84
2023-08-29T01:25:19.450Z,86280.34
2023-08-29T01:27:48.414Z,86290.53
2023-08-29T01:30:17.256Z,86284.44
2023-08-29T01:32:45.829Z,86288.47
2023-08-29T01:35:15.844Z,86280.94
2023-08-29T01:37:43.801Z,86285.91
2023-08-29T01:40:11.958Z,86286.50
2023-08-29T01:42:39.783Z,86289.47
2023-08-29T01:45:08.139Z,86284.28
2023-08-29T01:47:36.020Z,86288.63
2023-08-29T01:50:06.140Z,86289.38
2023-08-29T01:52:34.211Z,86288.63
2023-08-29T01:55:02.769Z,86285.97
2023-08-29T01:57:35.238Z,86295.31
2023-08-29T02:00:04.703Z,86301.38
2023-08-29T02:02:32.668Z,86300.81
2023-08-29T02:05:00.459Z,86299.53
2023-08-29T02:07:28.441Z,86306.84
2023-08-29T02:09:56.217Z,86310.56
2023-08-29T02:12:24.282Z,86317.38
2023-08-29T02:14:52.097Z,86316.53
2023-08-29T02:17:20.348Z,86313.88
2023-08-29T02:19:48.068Z,86318.84
2023-08-29T02:22:15.895Z,86319.59
2023-08-29T02:24:43.749Z,86313.63
2023-08-29T02:27:11.921Z,86312.88
2023-08-29T02:29:39.849Z,86319.38
2023-08-29T02:32:07.484Z,86308.84
2023-08-29T02:34:35.272Z,86310.66
2023-08-29T02:37:03.104Z,86313.84
2023-08-29T02:39:30.856Z,86319.56
2023-08-29T02:41:58.646Z,86316.59
2023-08-29T02:44:26.463Z,86315.53
2023-08-29T02:46:54.290Z,86309.16
2023-08-29T02:49:22.047Z,86303.91
2023-08-29T02:51:50.067Z,86305.84
2023-08-29T02:54:18.739Z,86299.16
2023-08-29T02:56:46.530Z,86292.03
2023-08-29T02:59:14.328Z,86283.00
2023-08-29T03:01:41.785Z,86284.50
2023-08-29T03:04:09.618Z,86283.84
2023-08-29T03:06:37.320Z,86288.00
2023-08-29T03:09:04.865Z,86283.00
2023-08-29T03:11:32.804Z,86285.03
2023-08-29T03:18:00.279Z,86272.91
2023-08-29T03:20:28.182Z,86263.88
2023-08-29T03:22:56.130Z,86266.97
2023-08-29T03:25:24.094Z,86268.88
2023-08-29T03:27:52.000Z,86267.16
2023-08-29T03:30:20.034Z,86264.94
2023-08-29T03:32:47.985Z,86269.47
2023-08-29T03:35:15.903Z,86275.97
2023-08-29T03:37:43.435Z,86267.03
2023-08-29T03:40:18.781Z,86269.66
2023-08-29T03:42:46.680Z,86277.63
2023-08-29T03:45:14.494Z,86271.50
2023-08-29T03:47:42.592Z,86268.53
2023-08-29T03:50:10.760Z,86264.69
2023-08-29T03:52:38.554Z,86262.91
2023-08-29T03:55:06.517Z,86269.59
2023-08-29T03:57:34.273Z,86269.28
2023-08-29T04:00:01.783Z,86279.13
2023-08-29T04:02:29.982Z,86274.22
2023-08-29T04:05:13.377Z,86272.00
2023-08-29T04:07:41.538Z,86273.19
2023-08-29T04:10:09.878Z,86274.66
2023-08-29T04:12:37.633Z,86274.22
2023-08-29T04:15:06.260Z,86283.03
2023-08-29T04:17:34.118Z,86288.66
2023-08-29T04:20:02.472Z,86292.56
2023-08-29T04:22:30.420Z,86287.66
2023-08-29T04:24:58.431Z,86290.41
2023-08-29T04:27:26.278Z,86287.00
2023-08-29T04:29:54.072Z,86285.94
2023-08-29T04:32:21.839Z,86297.44
2023-08-29T04:34:49.599Z,86297.03
2023-08-29T04:37:17.915Z,86296.53
2023-08-29T04:39:45.741Z,86302.25
2023-08-29T04:42:13.657Z,86303.44
2023-08-29T04:44:43.009Z,86310.72
2023-08-29T04:47:11.924Z,86313.94
2023-08-29T04:49:40.234Z,86312.88
2023-08-29T04:52:09.052Z,86317.09
2023-08-29T04:54:37.171Z,86320.59
2023-08-29T04:57:05.496Z,86317.63
2023-08-29T04:59:33.497Z,86315.28
2023-08-29T05:02:01.699Z,86311.56
2023-08-29T05:04:29.574Z,86312.06
2023-08-29T05:06:57.358Z,86310.06
2023-08-29T05:09:25.218Z,86310.50
2023-08-29T05:11:52.992Z,86314.06
2023-08-29T05:14:21.019Z,86320.09
2023-08-29T05:16:48.871Z,86311.81
2023-08-29T05:19:16.823Z,86322.75
2023-08-29T05:21:44.568Z,86316.28
2023-08-29T05:24:12.748Z,86319.19
2023-08-29T05:26:40.499Z,86322.16
2023-08-29T05:29:08.447Z,86324.38
2023-08-29T05:31:36.474Z,86321.00
2023-08-29T05:34:04.310Z,86323.56
2023-08-29T05:36:32.317Z,86314.44
2023-08-29T05:39:01.485Z,86315.53
2023-08-29T05:41:33.268Z,86312.81
2023-08-29T05:44:01.328Z,86311.56
2023-08-29T05:46:28.985Z,86309.97
2023-08-29T05:48:56.859Z,86309.13
2023-08-29T05:51:27.229Z,86311.38
2023-08-29T05:53:54.808Z,86306.00
2023-08-29T05:56:22.350Z,86308.47
2023-08-29T05:58:49.983Z,86309.53
2023-08-29T06:01:17.843Z,86310.69
2023-08-29T06:03:45.425Z,86303.59
2023-08-29T06:06:15.344Z,86308.47
2023-08-29T06:08:43.115Z,86308.88
2023-08-29T06:11:10.971Z,86316.41
2023-08-29T06:13:38.912Z,86314.91
2023-08-29T06:16:06.806Z,86317.22
2023-08-29T06:18:34.578Z,86324.03
2023-08-29T06:21:02.664Z,86321.72
2023-08-29T06:23:30.415Z,86324.44
2023-08-29T06:25:59.070Z,86315.09
2023-08-29T06:28:28.196Z,86327.94
2023-08-29T06:30:55.923Z,86319.22
2023-08-29T06:33:24.327Z,86320.22
2023-08-29T06:35:53.468Z,86314.09
2023-08-29T06:38:21.826Z,86313.28
2023-08-29T06:40:59.622Z,86323.03
2023-08-29T06:43:27.627Z,86322.72
2023-08-29T06:45:55.509Z,86326.88
2023-08-29T06:48:23.297Z,86320.06
2023-08-29T06:50:51.108Z,86322.03
2023-08-29T06:53:19.207Z,86324.03
2023-08-29T06:55:49.636Z,86325.28
2023-08-29T06:58:17.349Z,86322.69
2023-08-29T07:00:45.524Z,86321.97
2023-08-29T07:03:13.347Z,86319.22
2023-08-29T07:05:40.905Z,86314.25
2023-08-29T07:08:08.976Z,86318.16
2023-08-29T07:10:36.826Z,86320.63
2023-08-29T07:13:05.815Z,86327.59
2023-08-29T07:15:33.329Z,86322.84
2023-08-29T07:18:00.756Z,86321.25
2023-08-29T07:20:28.611Z,86331.25
2023-08-29T07:22:56.763Z,86323.38
2023-08-29T07:25:38.902Z,86326.59
2023-08-29T07:28:09.483Z,86325.66
2023-08-29T07:30:45.116Z,86331.28
2023-08-29T07:33:13.716Z,86331.84
2023-08-29T07:35:42.780Z,86334.06
2023-08-29T07:38:11.114Z,86336.53
2023-08-29T07:40:39.325Z,86336.78
2023-08-29T07:43:09.350Z,86338.19
2023-08-29T07:45:37.533Z,86329.41
2023-08-29T07:48:06.517Z,86329.19
2023-08-29T07:50:34.334Z,86327.19
2023-08-29T07:53:02.570Z,86329.31
2023-08-29T07:55:31.690Z,86321.91
2023-08-29T07:58:00.597Z,86318.13
2023-08-29T08:00:29.168Z,86322.91
2023-08-29T08:02:57.328Z,86319.81
2023-08-29T08:05:25.152Z,86311.03
2023-08-29T08:07:53.407Z,86307.19
2023-08-29T08:10:21.239Z,86314.25
2023-08-29T08:12:56.576Z,86304.25
2023-08-29T08:15:24.604Z,86305.22
2023-08-29T08:17:52.516Z,86302.69
2023-08-29T08:20:21.657Z,86309.91
2023-08-29T08:22:53.118Z,86314.38
2023-08-29T08:25:21.082Z,86314.38
2023-08-29T08:27:48.464Z,86311.72
2023-08-29T08:30:16.359Z,86311.50
2023-08-29T08:32:44.208Z,86317.69
2023-08-29T08:35:12.689Z,86310.22
2023-08-29T08:37:40.627Z,86318.84
2023-08-29T08:40:09.295Z,86330.84
2023-08-29T08:42:40.533Z,86327.63
2023-08-29T08:45:08.980Z,86329.13
2023-08-29T08:47:37.579Z,86319.03
2023-08-29T08:50:07.137Z,86323.06
2023-08-29T08:52:35.393Z,86321.78
2023-08-29T08:55:03.730Z,86327.72
2023-08-29T08:57:32.261Z,86320.81
2023-08-29T08:59:59.777Z,86318.16
2023-08-29T09:02:28.734Z,86320.81
2023-08-29T09:04:56.558Z,86320.19
2023-08-29T09:07:24.708Z,86323.03
2023-08-29T09:10:07.910Z,86334.09
2023-08-29T09:12:35.881Z,86337.94
2023-08-29T09:15:06.604Z,86337.28
2023-08-29T09:17:34.198Z,86341.22
2023-08-29T09:20:06.308Z,86344.63
2023-08-29T09:22:34.574Z,86342.72
2023-08-29T09:25:05.856Z,86343.66
2023-08-29T09:27:44.748Z,86345.59
2023-08-29T09:30:15.398Z,86346.31
2023-08-29T09:32:49.133Z,86345.06
2023-08-29T09:35:19.359Z,86349.84
2023-08-29T09:37:56.407Z,86343.47
2023-08-29T09:43:04.003Z,86344.44
2023-08-29T09:45:33.358Z,86352.41
2023-08-29T09:48:07.340Z,86350.16
2023-08-29T09:50:37.422Z,86353.59
2023-08-29T09:53:06.300Z,86354.44
2023-08-29T09:55:47.438Z,86351.34
2023-08-29T09:58:17.309Z,86356.03
2023-08-29T10:00:45.307Z,86350.28
2023-08-29T10:03:13.410Z,86351.78
2023-08-29T10:05:45.163Z,86349.13
2023-08-29T10:08:13.087Z,86363.25
2023-08-29T10:10:43.416Z,86358.78
2023-08-29T10:13:12.895Z,86358.25
2023-08-29T10:15:42.292Z,86356.84
2023-08-29T10:18:11.781Z,86349.31
2023-08-29T10:20:40.754Z,86352.63
2023-08-29T10:23:11.221Z,86356.78
2023-08-29T10:25:40.100Z,86352.22
2023-08-29T10:28:13.705Z,86354.66
2023-08-29T10:30:50.362Z,86357.06
2023-08-29T10:33:19.726Z,86347.28
2023-08-29T10:35:50.784Z,86341.00
2023-08-29T10:38:19.659Z,86333.66
2023-08-29T10:40:47.473Z,86338.31
2023-08-29T10:43:21.115Z,86333.75
2023-08-29T10:45:56.310Z,86334.69
2023-08-29T10:48:46.989Z,86342.34
2023-08-29T10:51:20.810Z,86334.69
2023-08-29T10:53:54.209Z,86331.22
2023-08-29T10:56:39.594Z,86327.88
2023-08-29T10:59:07.766Z,86322.88
2023-08-29T11:01:35.250Z,86324.47
2023-08-29T11:04:14.058Z,86323.00
2023-08-29T11:06:56.079Z,86316.50
2023-08-29T11:09:26.207Z,86320.19
2023-08-29T11:12:11.774Z,86318.22
2023-08-29T11:14:54.242Z,86317.34
2023-08-29T11:17:22.466Z,86315.97
2023-08-29T11:19:56.505Z,86314.06
2023-08-29T11:22:26.484Z,86312.47
2023-08-29T11:24:55.940Z,86314.38
2023-08-29T11:27:25.031Z,86310.41
2023-08-29T11:30:05.799Z,86312.53
2023-08-29T11:32:39.451Z,86304.56
2023-08-29T11:35:07.505Z,86314.34
2023-08-29T11:37:35.415Z,86312.16
2023-08-29T11:40:10.109Z,86308.97
2023-08-29T11:42:42.695Z,86310.34
2023-08-29T11:45:46.957Z,86314.03
2023-08-29T11:48:21.463Z,86315.53
2023-08-29T11:50:49.314Z,86313.94
2023-08-29T11:53:42.541Z,86322.78
2023-08-29T11:56:13.736Z,86320.75
2023-08-29T11:58:43.058Z,86330.22
2023-08-29T12:01:10.853Z,86324.59
2023-08-29T12:03:40.311Z,86327.03
2023-08-29T12:06:14.541Z,86326.75
2023-08-29T12:08:45.182Z,86336.31
2023-08-29T12:11:15.394Z,86335.50
2023-08-29T12:14:00.268Z,86344.81
2023-08-29T12:16:28.527Z,86344.38
2023-08-29T12:19:09.766Z,86344.94
2023-08-29T12:21:37.875Z,86343.56
2023-08-29T12:24:13.134Z,86348.16
2023-08-29T12:26:41.057Z,86341.69
2023-08-29T12:29:08.883Z,86361.00
2023-08-29T12:31:36.665Z,86364.94
2023-08-29T12:34:04.659Z,86354.31
2023-08-29T12:36:32.477Z,86367.72
2023-08-29T12:39:00.886Z,86357.72
2023-08-29T12:41:28.782Z,86355.94
2023-08-29T12:43:56.630Z,86346.88
2023-08-29T12:46:24.527Z,86356.66
2023-08-29T12:48:52.418Z,86368.47
2023-08-29T12:51:20.444Z,86365.06
2023-08-29T12:53:50.711Z,86372.16
2023-08-29T12:56:18.087Z,86370.78
2023-08-29T12:58:45.595Z,86371.84
2023-08-29T13:01:17.897Z,86378.13
2023-08-29T13:03:45.417Z,86376.53
2023-08-29T13:06:13.003Z,86381.00
2023-08-29T13:08:40.554Z,86378.66
2023-08-29T13:11:08.054Z,86382.38
2023-08-29T13:13:35.502Z,86390.78
2023-08-29T13:16:03.119Z,86394.28
2023-08-29T13:18:30.695Z,86397.25
2023-08-29T13:20:58.118Z,86396.81
2023-08-29T13:23:26.279Z,86403.63
2023-08-29T13:25:55.072Z,86401.09
2023-08-29T13:28:22.631Z,86400.56
2023-08-29T13:30:49.993Z,86393.75
2023-08-29T13:33:17.289Z,86394.69
2023-08-29T13:35:44.733Z,86401.91
2023-08-29T13:38:12.063Z,86399.50
2023-08-29T13:40:39.522Z,86401.41
2023-08-29T13:43:06.843Z,86409.56
2023-08-29T13:45:34.552Z,86410.22
2023-08-29T13:48:02.330Z,86413.19
2023-08-29T13:50:30.064Z,86419.53
2023-08-29T13:52:57.536Z,86430.16
2023-08-29T13:55:25.026Z,86420.84
2023-08-29T13:57:52.453Z,86421.63
2023-08-29T14:00:20.585Z,86428.44
2023-08-29T14:02:48.015Z,86431.84
2023-08-29T14:05:15.833Z,86425.72
2023-08-29T14:07:43.267Z,86422.91
2023-08-29T14:10:10.859Z,86427.72
2023-08-29T14:12:38.430Z,86429.66
2023-08-29T14:15:07.093Z,86434.41
2023-08-29T14:17:34.726Z,86428.84
2023-08-29T14:20:02.372Z,86431.69
2023-08-29T14:22:30.108Z,86436.06
2023-08-29T14:24:57.571Z,86442.69
2023-08-29T14:27:25.116Z,86442.28
2023-08-29T14:29:52.890Z,86445.69
2023-08-29T14:32:23.464Z,86442.41
2023-08-29T14:34:50.896Z,86448.56
2023-08-29T14:37:18.455Z,86445.56
2023-08-29T14:39:48.379Z,86452.97
2023-08-29T14:42:15.717Z,86451.69
2023-08-29T14:44:43.081Z,86447.44
2023-08-29T14:47:10.498Z,86450.84
2023-08-29T14:49:37.895Z,86451.00
2023-08-29T14:52:06.211Z,86454.91
2023-08-29T14:54:33.670Z,86451.84
2023-08-29T14:57:01.158Z,86466.09
2023-08-29T14:59:28.867Z,86462.69
2023-08-29T15:01:56.371Z,86460.84
2023-08-29T15:04:23.730Z,86461.94
2023-08-29T15:06:51.314Z,86465.34
2023-08-29T15:09:18.890Z,86473.22
2023-08-29T15:11:47.716Z,86478.00
2023-08-29T15:22:35.179Z,86486.66
2023-08-29T15:25:02.595Z,86488.16
2023-08-29T15:27:30.955Z,86485.91
2023-08-29T15:29:58.695Z,86488.31
2023-08-29T15:32:26.630Z,86490.56
2023-08-29T15:34:54.403Z,86494.47
2023-08-29T15:37:21.950Z,86499.47
2023-08-29T15:39:49.439Z,86488.50
2023-08-29T15:42:17.328Z,86495.16
2023-08-29T15:44:52.852Z,86495.91
2023-08-29T15:47:20.203Z,86484.78
2023-08-29T15:49:47.544Z,86489.41
2023-08-29T15:52:15.285Z,86495.47
2023-08-29T15:54:44.072Z,86500.13
2023-08-29T15:57:12.066Z,86502.44
2023-08-29T15:59:39.859Z,86497.03
2023-08-29T16:02:07.163Z,86498.13
2023-08-29T16:04:37.724Z,86501.59
2023-08-29T16:07:05.960Z,86495.16
2023-08-29T16:09:33.519Z,86500.34
2023-08-29T16:12:04.412Z,86500.28
2023-08-29T16:14:32.037Z,86502.94
2023-08-29T16:16:59.656Z,86500.50
2023-08-29T16:19:27.144Z,86492.47
2023-08-29T16:21:54.958Z,86501.59
2023-08-29T16:24:22.293Z,86492.16
2023-08-29T16:26:49.749Z,86499.69
2023-08-29T16:29:17.155Z,86496.59
2023-08-29T16:31:45.008Z,86497.53
2023-08-29T16:34:12.527Z,86496.59
2023-08-29T16:36:40.041Z,86494.38
2023-08-29T16:39:07.452Z,86492.53
2023-08-29T16:41:34.965Z,86502.84
2023-08-29T16:44:03.344Z,86501.75
2023-08-29T16:46:35.811Z,86498.78
2023-08-29T16:49:03.501Z,86507.50
2023-08-29T16:51:31.183Z,86504.09
2023-08-29T16:53:58.977Z,86501.44
2023-08-29T16:56:26.557Z,86496.88
2023-08-29T16:58:53.949Z,86493.91
2023-08-29T17:01:21.440Z,86499.19
2023-08-29T17:03:48.966Z,86496.88
2023-08-29T17:06:16.470Z,86507.06
2023-08-29T17:08:43.850Z,86500.72
2023-08-29T17:11:13.685Z,86498.44
2023-08-29T17:13:41.060Z,86503.59
2023-08-29T17:16:08.751Z,86504.25
2023-08-29T17:18:36.134Z,86497.91
2023-08-29T17:21:03.797Z,86507.75
2023-08-29T17:23:31.453Z,86512.06
2023-08-29T17:26:00.828Z,86505.28
2023-08-29T17:28:28.538Z,86516.69
2023-08-29T17:30:56.907Z,86514.53
2023-08-29T17:33:25.615Z,86516.53
2023-08-29T17:35:53.474Z,86518.03
2023-08-29T17:38:20.895Z,86532.38
2023-08-29T17:40:48.273Z,86521.94
2023-08-29T17:43:16.026Z,86523.00
2023-08-29T17:45:46.452Z,86529.03
2023-08-29T17:48:13.956Z,86525.72
2023-08-29T17:50:47.957Z,86518.53
2023-08-29T17:53:17.838Z,86520.53
2023-08-29T17:55:45.262Z,86516.38
2023-08-29T17:58:12.840Z,86524.75
2023-08-29T18:00:40.309Z,86516.13
2023-08-29T18:03:08.221Z,86515.44
2023-08-29T18:05:35.794Z,86525.31
2023-08-29T18:08:03.542Z,86527.63
2023-08-29T18:10:30.946Z,86530.09
2023-08-29T18:12:58.303Z,86537.72
2023-08-29T18:15:26.027Z,86534.47
2023-08-29T18:17:53.523Z,86535.94
2023-08-29T18:20:21.051Z,86532.53
2023-08-29T18:22:48.840Z,86534.72
2023-08-29T18:25:16.614Z,86531.81
2023-08-29T18:27:43.970Z,86537.91
2023-08-29T18:30:12.147Z,86532.28
2023-08-29T18:32:39.997Z,86540.22
2023-08-29T18:35:08.462Z,86546.75
2023-08-29T18:37:35.852Z,86551.66
2023-08-29T18:40:04.195Z,86554.38
2023-08-29T18:42:31.796Z,86555.94
2023-08-29T18:44:59.218Z,86556.28
2023-08-29T18:47:26.638Z,86558.25
2023-08-29T18:49:54.227Z,86557.94
2023-08-29T18:52:21.737Z,86560.56
2023-08-29T18:54:49.186Z,86562.13
2023-08-29T18:57:16.954Z,86558.66
2023-08-29T18:59:44.542Z,86568.91
2023-08-29T19:02:11.920Z,86571.56
2023-08-29T19:04:39.317Z,86570.91
2023-08-29T19:07:06.767Z,86581.06
2023-08-29T19:09:34.628Z,86581.50
2023-08-29T19:12:01.981Z,86583.06
2023-08-29T19:14:29.402Z,86578.66
2023-08-29T19:16:56.792Z,86584.75
2023-08-29T19:19:24.225Z,86583.28
2023-08-29T19:21:51.707Z,86588.22
2023-08-29T19:24:19.879Z,86590.25
2023-08-29T19:26:47.294Z,86594.06
2023-08-29T19:29:15.239Z,86587.69
2023-08-29T19:31:43.097Z,86590.00
2023-08-29T19:34:10.681Z,86587.00
2023-08-29T19:36:38.103Z,86587.34
2023-08-29T19:39:16.764Z,86586.59
2023-08-29T19:41:45.967Z,86585.09
2023-08-29T19:44:13.381Z,86584.75
2023-08-29T19:46:40.783Z,86588.16
2023-08-29T19:49:08.256Z,86585.84
2023-08-29T19:51:35.649Z,86583.63
2023-08-29T19:54:03.040Z,86584.41
2023-08-29T19:56:31.315Z,86580.63
2023-08-29T19:58:58.822Z,86579.53
2023-08-29T20:01:26.259Z,86582.66
2023-08-29T20:03:53.734Z,86573.97
2023-08-29T20:06:21.772Z,86582.31
2023-08-29T20:08:49.718Z,86580.41
2023-08-29T20:11:17.181Z,86575.47
2023-08-29T20:13:44.828Z,86577.78
2023-08-29T20:16:12.597Z,86578.13
2023-08-29T20:18:40.365Z,86576.19
2023-08-29T20:21:07.862Z,86574.03
2023-08-29T20:23:42.008Z,86581.28
2023-08-29T20:26:16.106Z,86584.75
2023-08-29T20:28:43.463Z,86582.88
2023-08-29T20:31:11.059Z,86587.41
2023-08-29T20:33:38.554Z,86587.06
2023-08-29T20:36:06.303Z,86592.34
2023-08-29T20:38:33.911Z,86592.81
2023-08-29T20:41:01.275Z,86597.31
2023-08-29T20:43:28.737Z,86594.25
2023-08-29T20:45:56.213Z,86599.97
2023-08-29T20:48:23.656Z,86607.47
2023-08-29T20:51:00.230Z,86594.72
2023-08-29T20:53:31.826Z,86596.56
2023-08-29T20:55:59.377Z,86596.94
2023-08-29T20:58:26.806Z,86595.50
2023-08-29T21:01:03.581Z,86593.28
2023-08-29T21:03:36.598Z,86596.34
2023-08-29T21:06:04.615Z,86593.34
2023-08-29T21:08:32.634Z,86593.34
2023-08-29T21:11:00.313Z,86588.41
2023-08-29T21:13:27.740Z,86586.09
2023-08-29T21:15:55.450Z,86591.38
2023-08-29T21:18:23.170Z,86592.88
2023-08-29T21:21:03.634Z,86588.00
2023-08-29T21:23:31.109Z,86583.91
2023-08-29T21:25:58.640Z,86591.78
2023-08-29T21:28:27.777Z,86583.50
2023-08-29T21:30:56.761Z,86587.31
2023-08-29T21:33:24.701Z,86588.88
2023-08-29T21:35:52.826Z,86597.22
2023-08-29T21:38:21.439Z,86584.78
2023-08-29T21:40:48.984Z,86585.53
2023-08-29T21:43:24.079Z,86592.72
2023-08-29T21:45:59.837Z,86589.41
2023-08-29T21:48:28.362Z,86594.19
2023-08-29T21:50:56.253Z,86587.44
2023-08-29T21:53:24.014Z,86592.72
2023-08-29T21:55:52.848Z,86591.22
2023-08-29T21:58:20.973Z,86576.88
2023-08-29T22:00:52.766Z,86581.38
2023-08-29T22:03:24.684Z,86581.38
2023-08-29T22:05:53.358Z,86577.66
2023-08-29T22:08:22.030Z,86577.97
2023-08-29T22:10:49.991Z,86585.59
2023-08-29T22:13:17.634Z,86583.00
2023-08-29T22:15:45.247Z,86595.78
2023-08-29T22:18:13.053Z,86589.41
2023-08-29T22:20:40.946Z,86604.50
2023-08-29T22:23:08.515Z,86590.53
2023-08-29T22:25:36.903Z,86594.34
2023-08-29T22:28:04.800Z,86599.34
2023-08-29T22:30:32.326Z,86594.47
2023-08-29T22:32:59.750Z,86591.47
2023-08-29T22:35:27.859Z,86594.03
2023-08-29T22:37:55.271Z,86590.25
2023-08-29T22:40:22.907Z,86587.25
2023-08-29T22:42:50.331Z,86585.44
2023-08-29T22:45:19.069Z,86584.34
2023-08-29T22:47:51.569Z,86584.69
2023-08-29T22:50:19.413Z,86589.97
2023-08-29T22:52:46.771Z,86583.16
2023-08-29T22:55:14.224Z,86577.19
2023-08-29T22:57:41.672Z,86581.00
2023-08-29T23:00:09.586Z,86572.00
2023-08-29T23:02:37.086Z,86574.97
2023-08-29T23:05:05.182Z,86570.19
2023-08-29T23:07:32.585Z,86577.28
2023-08-29T23:10:00.080Z,86576.94
2023-08-29T23:12:27.567Z,86574.72
2023-08-29T23:14:54.949Z,86578.09
2023-08-29T23:17:22.353Z,86578.91
2023-08-29T23:19:50.104Z,86579.69
2023-08-29T23:22:17.463Z,86579.78
2023-08-29T23:24:45.159Z,86582.75
2023-08-29T23:27:12.662Z,86585.81
2023-08-29T23:29:40.211Z,86589.59
2023-08-29T23:32:07.780Z,86587.69
2023-08-29T23:34:35.195Z,86581.66
2023-08-29T23:37:02.927Z,86585.47
2023-08-29T23:39:30.406Z,86580.56
2023-08-29T23:41:58.082Z,86585.47
2023-08-29T23:44:25.645Z,86583.97
2023-08-29T23:46:53.012Z,86586.59
2023-08-29T23:49:20.368Z,86585.09
2023-08-29T23:51:48.030Z,86577.91
2023-08-29T23:54:15.361Z,86577.22
2023-08-29T23:56:42.771Z,86570.84
2023-08-29T23:59:10.251Z,86584.03
